Ryer Island, California
Current Conditions -  °F | °C
As of 5:58 AM on Friday 24 Oct 2014 (Local Time) from KSUU Reporting Station
Clear Clear  
Wind Chill: 55°   Ceiling: Unl
Heat Index: 55°   Visibility: 10mi
Dew Point: 53°   Wind: 7mph
Humidity: 92%   Direction: 40°NE
Pressure: 29.96"   Gusts: NA
Location:  38.2298°N, 121.579°W
Report Text: KSUU 241258Z AUTO 04006KT 10SM CLR 13/11 A2996 RMK AO2 SLP152 T01260114 $
Loading
Personal Weather Stations






























Interactive Weather Map
Tropical Storm Tracking
New forecast layout! Learn more

10-Day Weather Forecast

Advertisements
Track Severe Weather on mobile